Terminal Aerodrome Forecast
Issued by NWS Jackson, MS

Home | Current Version | Previous Version | Text Only | Print | Product List | Glossary On
Versions: 1 2 3 4 5 6 7 8 9 10 11 12
000
FTUS44 KJAN 181100
TAFGLH
TAF
KGLH 181129Z 1812/1912 01005KT P6SM OVC040
     FM181400 04008KT P6SM OVC035
     FM181800 05008KT P6SM VCTS BKN050CB
     FM190100 04003KT P6SM SCT100
     FM190900 04002KT 4SM BR SKC=

USA.gov is the U.S. government's official web portal to all federal, state and local government web resources and services.